Time;durP1;ratioP1;P1;durP2;ratioP2;P2;SDS_P1;SDS_P2;PMS_P1;PMS_P2;Temp;Humidity;BMP_temperature;BMP_pressure;BME280_temperature;BME280_humidity;BME280_pressure;Samples;Min_cycle;Max_cycle;Signal;HPM_P1;HPM_P2
2022/01/06 00:00:45;;;;;;;5.83;3.30;;;;;;;5.33;59.70;98977.28;4956747;28;96925;-88
2022/01/06 00:03:11;;;;;;;5.47;2.60;;;;;;;5.36;59.98;98987.59;4974306;28;97510;-88
2022/01/06 00:05:36;;;;;;;5.10;2.50;;;;;;;5.16;60.01;98954.44;4965454;28;101425;-88
2022/01/06 00:08:02;;;;;;;7.60;2.60;;;;;;;5.44;60.04;98990.78;4976343;28;96811;-88
2022/01/06 00:10:30;;;;;;;6.83;3.00;;;;;;;5.38;60.71;98991.00;4960138;28;96739;-88
2022/01/06 00:23:28;;;;;;;6.53;2.43;;;;;;;5.40;61.26;98981.38;4984529;28;100635;-88
2022/01/06 00:25:54;;;;;;;9.77;2.90;;;;;;;5.42;61.01;98984.78;4972214;28;100481;-88
2022/01/06 00:28:20;;;;;;;7.37;3.20;;;;;;;5.33;61.13;98961.66;4964940;28;96992;-89
2022/01/06 00:30:46;;;;;;;6.50;2.50;;;;;;;5.53;60.87;98984.41;4978007;28;96996;-87
2022/01/06 00:33:12;;;;;;;8.50;2.10;;;;;;;5.51;60.91;98975.81;4959817;28;101506;-87
2022/01/06 00:35:38;;;;;;;6.00;2.73;;;;;;;5.45;60.90;98979.47;4956525;28;101254;-88
2022/01/06 00:38:06;;;;;;;12.13;4.43;;;;;;;5.60;60.56;98988.50;4958431;28;96769;-88
2022/01/06 00:40:32;;;;;;;10.23;4.60;;;;;;;5.50;60.96;98996.66;4975374;28;96766;-89
2022/01/06 00:42:58;;;;;;;9.10;4.37;;;;;;;5.38;60.79;98977.97;4958890;28;101544;-88
2022/01/06 00:45:24;;;;;;;12.23;5.30;;;;;;;5.45;60.98;99004.66;4969989;28;101161;-88
2022/01/06 00:47:49;;;;;;;6.73;3.13;;;;;;;5.43;61.72;99016.84;4967325;28;96684;-88
2022/01/06 00:50:15;;;;;;;7.57;3.37;;;;;;;5.36;61.77;99024.03;4970833;28;96978;-88
2022/01/06 00:52:41;;;;;;;6.07;3.20;;;;;;;4.99;61.71;98960.19;4975868;28;100742;-88
2022/01/06 00:55:07;;;;;;;7.67;3.57;;;;;;;5.29;61.84;99001.69;4956564;28;101287;-88
2022/01/06 00:57:32;;;;;;;6.80;2.60;;;;;;;5.49;61.62;99039.22;4976047;28;96719;-88
2022/01/06 00:59:58;;;;;;;5.87;3.00;;;;;;;5.10;61.66;98987.63;4995028;28;97326;-87
2022/01/06 01:02:23;;;;;;;7.43;3.47;;;;;;;5.32;62.04;99019.81;4972751;28;100899;-88
2022/01/06 01:04:49;;;;;;;5.80;2.50;;;;;;;5.34;61.84;99022.38;4981800;28;101105;-88
2022/01/06 01:07:15;;;;;;;6.37;2.90;;;;;;;5.45;62.07;99028.91;4975301;28;97028;-88
2022/01/06 01:09:41;;;;;;;7.30;3.03;;;;;;;5.47;62.40;99026.28;4948122;28;97187;-88
2022/01/06 01:12:07;;;;;;;4.23;1.83;;;;;;;5.38;62.82;99010.94;4971824;28;100135;-88
2022/01/06 01:14:44;;;;;;;5.77;1.67;;;;;;;5.48;62.79;99017.56;4959030;28;101318;-88
2022/01/06 01:17:14;;;;;;;5.20;1.87;;;;;;;5.57;62.99;99039.81;4984622;28;96756;-88
2022/01/06 01:19:39;;;;;;;4.20;1.80;;;;;;;5.36;63.20;99021.41;4971513;28;96927;-88
2022/01/06 01:22:05;;;;;;;2.80;1.50;;;;;;;5.51;63.51;99037.44;4967250;28;101305;-88
2022/01/06 01:24:31;;;;;;;3.27;1.47;;;;;;;5.28;63.45;98999.16;4996768;28;98048;-88
2022/01/06 01:26:56;;;;;;;3.73;1.30;;;;;;;5.37;63.40;99017.06;4976554;28;97010;-88
2022/01/06 01:29:22;;;;;;;3.60;1.57;;;;;;;5.60;63.10;99050.97;4958834;28;97118;-88
2022/01/06 01:31:54;;;;;;;2.03;1.10;;;;;;;5.54;63.36;99043.38;4971496;28;98007;-89
2022/01/06 01:34:26;;;;;;;3.00;1.20;;;;;;;5.54;63.86;99064.19;4959907;28;99684;-88
2022/01/06 01:36:55;;;;;;;2.45;1.48;;;;;;;5.53;63.84;99056.47;4960904;28;96715;-88
2022/01/06 01:39:21;;;;;;;2.83;1.20;;;;;;;5.53;63.67;99053.84;4959880;28;96837;-88
2022/01/06 01:41:48;;;;;;;5.37;1.67;;;;;;;5.46;63.88;99042.78;4985451;28;100075;-91
2022/01/06 01:44:16;;;;;;;4.77;1.57;;;;;;;5.37;63.94;99030.91;4956978;28;101482;-88
2022/01/06 01:46:45;;;;;;;4.20;1.30;;;;;;;5.40;63.62;99036.00;4987034;28;97687;-89
2022/01/06 01:51:39;;;;;;;7.53;1.50;;;;;;;5.44;63.38;99044.59;4963321;28;101534;-88
2022/01/06 01:54:05;;;;;;;3.50;1.30;;;;;;;5.43;63.75;99038.50;4973914;28;97299;-87
2022/01/06 01:56:31;;;;;;;5.27;1.40;;;;;;;5.40;63.66;99048.19;4979390;28;97307;-87
2022/01/06 01:58:57;;;;;;;2.27;1.20;;;;;;;5.49;63.59;99062.66;4989940;28;96741;-87
2022/01/06 02:01:22;;;;;;;2.67;1.20;;;;;;;5.54;63.68;99071.16;4971933;28;97527;-88
2022/01/06 02:03:48;;;;;;;5.60;1.60;;;;;;;5.43;64.31;99074.09;4973608;28;101316;-90
2022/01/06 02:06:14;;;;;;;4.60;1.63;;;;;;;5.38;64.34;99074.28;4972055;28;96777;-87
2022/01/06 02:08:40;;;;;;;5.27;1.20;;;;;;;5.43;63.93;99066.31;4975076;28;96793;-88
2022/01/06 02:11:05;;;;;;;6.63;1.67;;;;;;;5.42;64.26;99049.00;4958428;28;100317;-90
2022/01/06 02:13:31;;;;;;;2.23;1.10;;;;;;;5.56;63.77;99079.78;4976045;28;100615;-88
2022/01/06 02:15:59;;;;;;;4.70;1.80;;;;;;;5.27;64.16;99026.09;4962991;28;97008;-88
2022/01/06 02:18:26;;;;;;;5.33;1.40;;;;;;;5.57;64.18;99064.09;4975742;28;96679;-89
2022/01/06 02:20:52;;;;;;;4.57;1.67;;;;;;;5.33;65.21;99044.94;4979220;28;98389;-88
2022/01/06 02:23:18;;;;;;;4.50;1.53;;;;;;;5.53;64.99;99075.53;5003526;28;98339;-88
2022/01/06 02:25:43;;;;;;;5.07;1.70;;;;;;;5.41;65.27;99066.38;4984732;28;97037;-88
2022/01/06 02:28:09;;;;;;;6.30;2.00;;;;;;;5.37;65.15;99061.31;4957367;28;97150;-87
2022/01/06 02:30:36;;;;;;;5.53;1.57;;;;;;;5.17;65.80;99028.97;4963849;28;100951;-88
2022/01/06 02:33:03;;;;;;;5.67;2.10;;;;;;;5.19;66.15;99037.56;4979611;28;97481;-88
2022/01/06 02:35:30;;;;;;;4.27;1.70;;;;;;;5.20;66.68;99059.25;4982010;28;96870;-88
2022/01/06 02:37:55;;;;;;;4.43;1.70;;;;;;;5.18;66.25;99035.88;4974913;28;96765;-88
2022/01/06 02:40:23;;;;;;;3.10;1.40;;;;;;;5.26;66.40;99053.84;4991601;28;98843;-88
2022/01/06 02:42:55;;;;;;;6.70;2.10;;;;;;;5.18;66.51;99061.06;4983146;28;98055;-90
2022/01/06 02:45:22;;;;;;;;;;;;;;;5.36;66.70;99109.06;4953532;28;97969;-88
2022/01/06 02:47:48;;;;;;;3.07;1.13;;;;;;;5.30;67.24;99107.50;4958644;28;97029;-90
2022/01/06 02:50:15;;;;;;;3.93;1.30;;;;;;;5.14;67.29;99111.47;4974620;28;101696;-88
2022/01/06 02:52:41;;;;;;;4.83;1.13;;;;;;;4.95;67.00;99077.38;4975101;28;101173;-89
2022/01/06 02:55:08;;;;;;;7.00;2.00;;;;;;;5.09;67.47;99128.97;4955713;28;97253;-88
2022/01/06 02:57:34;;;;;;;5.70;1.03;;;;;;;4.89;67.77;99104.44;4955828;28;96780;-88
2022/01/06 03:00:00;;;;;;;5.07;1.40;;;;;;;5.06;67.75;99126.47;4991249;28;97966;-88
2022/01/06 03:02:26;;;;;;;3.10;1.50;;;;;;;5.03;67.77;99124.78;4954758;28;101029;-87
2022/01/06 03:04:52;;;;;;;3.70;1.20;;;;;;;5.05;67.51;99117.81;4978021;28;96811;-88
2022/01/06 03:07:18;;;;;;;4.90;1.27;;;;;;;5.00;67.89;99124.88;4992176;28;96974;-88
2022/01/06 03:09:50;;;;;;;3.07;1.10;;;;;;;5.02;68.31;99124.84;4959038;28;101176;-88
2022/01/06 03:12:24;;;;;;;3.43;1.07;;;;;;;4.89;68.10;99108.78;4975755;28;101350;-88
2022/01/06 03:14:50;;;;;;;2.47;0.97;;;;;;;4.93;68.45;99108.63;4973091;28;97132;-89
2022/01/06 03:17:15;;;;;;;3.53;1.00;;;;;;;4.86;68.62;99099.31;4951757;28;97174;-87
2022/01/06 03:19:41;;;;;;;5.40;1.27;;;;;;;5.03;68.63;99126.53;4981966;28;101238;-89
2022/01/06 03:22:07;;;;;;;5.50;1.37;;;;;;;4.95;68.33;99109.44;4962657;28;101293;-88
2022/01/06 03:24:32;;;;;;;3.57;1.30;;;;;;;5.01;68.75;99113.59;4990066;28;97587;-88
2022/01/06 03:26:58;;;;;;;8.03;1.50;;;;;;;4.77;68.65;99076.22;4973841;28;97059;-88
2022/01/06 03:29:23;;;;;;;5.67;1.50;;;;;;;4.85;68.60;99087.19;4983002;28;101750;-88
2022/01/06 03:31:49;;;;;;;6.33;1.50;;;;;;;5.01;68.29;99108.41;4982941;28;97209;-89
2022/01/06 03:34:15;;;;;;;4.87;1.27;;;;;;;5.05;69.02;99125.59;4958161;28;97011;-88
2022/01/06 03:36:40;;;;;;;5.93;1.13;;;;;;;5.10;68.79;99128.94;4963795;28;96892;-87
2022/01/06 03:39:06;;;;;;;2.97;1.20;;;;;;;5.13;68.61;99134.03;4977698;28;101432;-87
2022/01/06 03:41:33;;;;;;;4.33;1.13;;;;;;;5.00;68.49;99111.88;4978377;28;101331;-88
2022/01/06 03:43:59;;;;;;;5.07;1.80;;;;;;;5.11;69.06;99137.56;4998384;28;97002;-89
2022/01/06 03:46:25;;;;;;;7.93;1.40;;;;;;;5.08;68.78;99140.28;4957989;28;96903;-89
2022/01/06 03:48:51;;;;;;;1.33;1.00;;;;;;;4.80;68.61;99081.31;4982299;28;100258;-90
2022/01/06 03:51:18;;;;;;;3.67;1.40;;;;;;;5.13;68.77;99143.59;4977229;28;98265;-88
2022/01/06 03:53:44;;;;;;;5.33;1.33;;;;;;;4.87;69.17;99106.22;4961167;28;97686;-87
2022/01/06 03:56:09;;;;;;;4.97;1.73;;;;;;;5.04;68.65;99118.72;4982587;28;97161;-87
2022/01/06 03:58:39;;;;;;;4.40;1.57;;;;;;;4.99;68.81;99124.03;4969863;28;100446;-89
2022/01/06 04:01:05;;;;;;;4.40;2.43;;;;;;;5.00;69.40;99130.09;4968280;28;98504;-88
2022/01/06 04:03:30;;;;;;;4.60;1.67;;;;;;;5.06;69.28;99129.94;4988559;28;96646;-88
2022/01/06 04:05:56;;;;;;;5.00;1.60;;;;;;;5.06;69.25;99131.66;4956433;28;96824;-88
2022/01/06 04:08:22;;;;;;;5.57;1.97;;;;;;;5.13;68.84;99143.59;4975023;28;98247;-89
2022/01/06 04:10:47;;;;;;;5.00;1.40;;;;;;;4.99;69.18;99136.19;4987507;28;97999;-88
2022/01/06 04:13:13;;;;;;;4.43;2.63;;;;;;;5.05;69.42;99143.81;4960458;28;97080;-89
2022/01/06 04:15:39;;;;;;;4.90;1.63;;;;;;;4.73;69.34;99100.56;4985634;28;96735;-88
2022/01/06 04:18:04;;;;;;;4.63;1.70;;;;;;;4.98;68.95;99137.09;4985980;28;100351;-88
2022/01/06 04:20:30;;;;;;;6.23;1.50;;;;;;;4.73;69.59;99114.41;4973413;28;100064;-89
2022/01/06 04:22:55;;;;;;;5.60;1.50;;;;;;;5.11;69.54;99161.00;4983539;28;96665;-88
2022/01/06 04:25:21;;;;;;;4.00;1.43;;;;;;;5.08;69.81;99176.69;4960680;28;97208;-91
2022/01/06 04:27:47;;;;;;;3.37;1.10;;;;;;;5.15;69.14;99168.66;4989961;28;101453;-88
2022/01/06 04:30:13;;;;;;;3.90;1.80;;;;;;;5.06;69.63;99171.56;4953168;28;100959;-88
2022/01/06 04:32:39;;;;;;;2.87;1.07;;;;;;;5.15;69.71;99168.66;4988349;28;96674;-87
2022/01/06 04:35:06;;;;;;;4.67;1.50;;;;;;;5.18;69.13;99180.75;4968556;28;97216;-88
2022/01/06 04:37:32;;;;;;;4.27;1.53;;;;;;;5.27;69.09;99174.41;4978647;28;100296;-91
2022/01/06 04:39:57;;;;;;;3.33;1.23;;;;;;;5.19;68.92;99172.03;4956940;28;99811;-88
2022/01/06 04:42:23;;;;;;;3.27;1.30;;;;;;;5.03;68.79;99147.34;4973020;28;96735;-89
2022/01/06 04:44:49;;;;;;;3.83;1.07;;;;;;;5.14;68.84;99182.56;4960210;28;96861;-88
2022/01/06 04:47:14;;;;;;;3.40;1.00;;;;;;;4.79;68.69;99134.19;4966004;28;100130;-89
2022/01/06 04:49:40;;;;;;;3.30;0.87;;;;;;;4.95;68.79;99184.03;4975723;28;99799;-88
2022/01/06 04:52:06;;;;;;;5.20;1.87;;;;;;;4.96;68.99;99183.13;4971808;28;97014;-88
2022/01/06 04:54:32;;;;;;;3.63;1.43;;;;;;;4.70;68.88;99137.06;4976481;28;97207;-88
2022/01/06 04:56:57;;;;;;;3.40;1.10;;;;;;;4.96;68.72;99194.34;4964150;28;101123;-88
2022/01/06 04:59:23;;;;;;;2.67;1.00;;;;;;;4.93;68.97;99188.41;4954214;28;101748;-88
2022/01/06 05:01:48;;;;;;;4.40;1.10;;;;;;;4.91;68.48;99193.63;4959219;28;97073;-88
2022/01/06 05:04:14;;;;;;;2.20;0.80;;;;;;;4.94;68.57;99203.94;4977968;28;97168;-88
2022/01/06 05:06:39;;;;;;;2.87;0.93;;;;;;;4.56;68.76;99157.41;4970959;28;99827;-88
2022/01/06 05:09:05;;;;;;;4.13;1.30;;;;;;;4.98;68.86;99217.75;4975327;28;99586;-88
2022/01/06 05:11:31;;;;;;;3.80;1.17;;;;;;;4.96;68.71;99224.72;4975885;28;96936;-89
2022/01/06 05:13:56;;;;;;;4.87;1.27;;;;;;;4.93;68.35;99227.41;4952936;28;97233;-88
2022/01/06 05:16:22;;;;;;;6.00;1.70;;;;;;;4.82;68.78;99206.06;4961726;28;100106;-88
2022/01/06 05:18:47;;;;;;;4.03;1.50;;;;;;;4.92;68.59;99229.16;4959299;28;101929;-87
2022/01/06 05:21:13;;;;;;;7.43;1.77;;;;;;;4.95;68.60;99230.84;4954179;28;96849;-90
2022/01/06 05:23:40;;;;;;;4.37;1.93;;;;;;;4.81;68.64;99212.16;5004463;28;97114;-88
2022/01/06 05:26:06;;;;;;;3.80;1.20;;;;;;;4.91;68.60;99234.41;4957557;28;101147;-88
2022/01/06 05:28:32;;;;;;;3.33;1.30;;;;;;;4.97;68.27;99240.31;4972786;28;101013;-90
2022/01/06 05:30:57;;;;;;;4.90;1.93;;;;;;;4.99;68.82;99242.84;5004947;28;96788;-88
2022/01/06 05:33:24;;;;;;;6.57;1.60;;;;;;;4.97;68.30;99237.69;4993087;28;96638;-87
2022/01/06 05:35:50;;;;;;;5.23;2.03;;;;;;;4.94;68.62;99245.56;4970753;28;101233;-89
2022/01/06 05:38:15;;;;;;;3.57;1.10;;;;;;;4.95;68.36;99239.47;4998854;28;98258;-89
2022/01/06 05:40:41;;;;;;;4.47;1.40;;;;;;;4.90;68.37;99237.91;4956437;28;97152;-88
2022/01/06 05:43:06;;;;;;;3.67;1.40;;;;;;;4.63;68.26;99190.13;4949635;28;97652;-88
2022/01/06 05:45:32;;;;;;;5.63;1.70;;;;;;;4.65;68.17;99202.16;4973791;28;101038;-89
2022/01/06 05:47:58;;;;;;;6.27;1.47;;;;;;;4.93;67.94;99250.81;4972602;28;101120;-88
2022/01/06 05:50:23;;;;;;;6.93;1.53;;;;;;;4.98;67.78;99257.59;4959648;28;96593;-88
2022/01/06 05:52:49;;;;;;;6.53;1.97;;;;;;;4.70;67.63;99217.66;4972463;28;97088;-87
2022/01/06 05:55:15;;;;;;;3.93;2.07;;;;;;;4.61;67.73;99210.09;4967561;28;101604;-88
2022/01/06 05:57:40;;;;;;;4.13;1.50;;;;;;;4.59;67.42;99209.28;4956045;28;100826;-88
2022/01/06 06:00:08;;;;;;;8.50;2.13;;;;;;;4.91;67.33;99265.59;4972311;28;96673;-88
2022/01/06 06:02:33;;;;;;;5.23;2.47;;;;;;;4.80;67.43;99258.13;4959325;28;97164;-88
2022/01/06 06:04:59;;;;;;;4.83;2.10;;;;;;;4.66;67.51;99240.28;4958733;28;101492;-88
2022/01/06 06:07:24;;;;;;;7.40;1.87;;;;;;;4.83;67.43;99273.63;4975892;28;101579;-87
2022/01/06 06:09:51;;;;;;;5.83;1.80;;;;;;;4.56;67.91;99246.63;4969730;28;97241;-88
2022/01/06 06:12:17;;;;;;;5.47;2.00;;;;;;;4.79;67.46;99278.94;4979670;28;97355;-87
2022/01/06 06:14:43;;;;;;;5.57;1.73;;;;;;;4.34;67.65;99199.56;4983042;28;97216;-87
2022/01/06 06:17:08;;;;;;;4.37;1.47;;;;;;;4.62;67.75;99249.03;4974924;28;98247;-88
2022/01/06 06:19:34;;;;;;;5.17;1.70;;;;;;;4.79;67.54;99278.94;4974965;28;96696;-87
2022/01/06 06:21:59;;;;;;;7.60;2.27;;;;;;;4.82;67.69;99299.66;4970374;28;96860;-87
2022/01/06 06:24:25;;;;;;;5.37;1.57;;;;;;;4.53;67.78;99254.50;4986001;28;101327;-88
2022/01/06 06:26:52;;;;;;;3.73;1.87;;;;;;;4.85;67.58;99338.59;4975212;28;101458;-88
2022/01/06 06:29:18;;;;;;;3.20;1.20;;;;;;;4.61;67.76;99322.72;4974277;28;96963;-87
2022/01/06 06:31:44;;;;;;;2.20;1.07;;;;;;;4.37;67.24;99281.78;4961661;28;97106;-88
2022/01/06 06:34:11;;;;;;;3.23;1.23;;;;;;;4.66;67.15;99343.44;4954872;28;99662;-88
2022/01/06 06:36:37;;;;;;;6.37;1.30;;;;;;;4.60;66.53;99341.84;4958565;28;100116;-87
2022/01/06 06:39:03;;;;;;;2.97;1.30;;;;;;;4.55;66.89;99356.69;4979534;28;96679;-88
2022/01/06 06:41:28;;;;;;;4.23;1.33;;;;;;;4.47;66.34;99350.81;4967912;28;97166;-87
2022/01/06 06:43:54;;;;;;;2.77;1.20;;;;;;;4.50;66.58;99364.59;4981067;28;100628;-88
2022/01/06 06:46:20;;;;;;;3.27;1.20;;;;;;;4.24;66.61;99339.22;4983957;28;101103;-87
2022/01/06 06:48:45;;;;;;;1.67;1.10;;;;;;;4.26;66.85;99347.00;4991571;28;97257;-87
2022/01/06 06:51:13;;;;;;;2.33;1.03;;;;;;;4.52;66.34;99395.75;4973896;28;97426;-88
2022/01/06 06:53:39;;;;;;;4.07;1.10;;;;;;;4.29;66.60;99354.72;4972844;28;98444;-88
2022/01/06 06:56:05;;;;;;;4.63;1.10;;;;;;;4.48;66.48;99400.16;4961111;28;100163;-88
2022/01/06 06:58:31;;;;;;;3.33;0.97;;;;;;;4.26;66.66;99368.63;4960340;28;96880;-87
2022/01/06 07:00:56;;;;;;;2.67;1.30;;;;;;;4.36;65.99;99394.38;4975043;28;97188;-89
2022/01/06 07:03:23;;;;;;;5.63;1.30;;;;;;;4.30;66.73;99393.66;4972786;28;101570;-87
2022/01/06 07:05:48;;;;;;;3.93;1.20;;;;;;;4.37;66.50;99406.50;4976873;28;101753;-88
2022/01/06 07:08:14;;;;;;;3.30;1.30;;;;;;;4.38;66.57;99422.06;4977013;28;96668;-88
2022/01/06 07:10:40;;;;;;;2.53;0.93;;;;;;;4.27;66.42;99401.50;4978740;28;96947;-88
2022/01/06 07:13:05;;;;;;;3.70;1.20;;;;;;;4.44;65.90;99427.09;4960083;28;100142;-89
2022/01/06 07:15:33;;;;;;;4.07;1.17;;;;;;;4.22;66.10;99407.72;4949366;28;100819;-88
2022/01/06 07:17:58;;;;;;;3.73;1.17;;;;;;;4.25;66.02;99421.50;4951354;28;96643;-89
2022/01/06 07:20:24;;;;;;;6.53;1.70;;;;;;;4.27;66.42;99435.28;4975633;28;97376;-89
2022/01/06 07:22:49;;;;;;;7.07;1.83;;;;;;;4.23;66.35;99414.63;4954940;28;100687;-87
2022/01/06 07:25:16;;;;;;;4.80;1.40;;;;;;;4.32;65.83;99437.78;4955960;28;99919;-87
2022/01/06 07:27:41;;;;;;;3.10;1.13;;;;;;;4.47;66.01;99457.38;4963263;28;97340;-87
2022/01/06 07:30:07;;;;;;;6.90;1.40;;;;;;;4.32;66.05;99437.78;4976519;28;96774;-87
2022/01/06 07:32:50;;;;;;;5.87;2.00;;;;;;;4.39;65.90;99451.47;4956859;28;101125;-88
2022/01/06 07:35:18;;;;;;;3.60;1.20;;;;;;;4.30;65.62;99443.03;4985285;28;97574;-87
2022/01/06 07:37:44;;;;;;;3.63;1.63;;;;;;;4.51;65.45;99479.81;4976997;28;96740;-88
2022/01/06 07:40:10;;;;;;;2.83;1.30;;;;;;;4.49;65.69;99485.03;4973970;28;96906;-88
2022/01/06 07:42:36;;;;;;;3.87;1.57;;;;;;;4.35;65.31;99453.31;4969776;28;98459;-87
2022/01/06 07:45:03;;;;;;;5.73;1.73;;;;;;;4.50;65.62;99488.50;4975556;28;101308;-88
2022/01/06 07:47:32;;;;;;;4.27;1.40;;;;;;;4.42;65.55;99485.19;4972522;28;97281;-87
2022/01/06 07:49:58;;;;;;;4.67;2.23;;;;;;;4.03;65.15;99422.84;4986427;28;97304;-87
2022/01/06 07:52:23;;;;;;;4.83;1.83;;;;;;;4.48;65.17;99498.94;4971820;28;101234;-87
2022/01/06 07:54:49;;;;;;;8.00;1.87;;;;;;;4.40;65.03;99513.84;4960266;28;101628;-88
2022/01/06 07:57:15;;;;;;;3.47;1.70;;;;;;;4.41;65.05;99514.69;4968067;28;96821;-87
2022/01/06 07:59:41;;;;;;;4.13;1.30;;;;;;;4.27;64.34;99502.81;4972146;28;97246;-87
2022/01/06 08:02:07;;;;;;;5.70;1.40;;;;;;;4.36;64.18;99514.78;4959721;28;99962;-87
2022/01/06 08:04:33;;;;;;;4.73;1.77;;;;;;;4.24;64.09;99530.63;4958545;28;101526;-87
2022/01/06 08:06:59;;;;;;;4.50;1.50;;;;;;;4.32;64.41;99542.56;4988809;28;96728;-87
2022/01/06 08:09:24;;;;;;;4.67;1.57;;;;;;;4.32;64.31;99547.75;4986979;28;96842;-87
2022/01/06 08:11:50;;;;;;;3.17;1.47;;;;;;;4.30;63.72;99543.47;4984169;28;98525;-87
2022/01/06 08:14:16;;;;;;;3.00;1.30;;;;;;;4.35;63.73;99559.84;4990329;28;97195;-89
2022/01/06 08:16:41;;;;;;;3.90;1.87;;;;;;;4.39;63.98;99563.22;4973075;28;97284;-88
2022/01/06 08:19:07;;;;;;;4.83;1.67;;;;;;;4.33;63.99;99572.00;4989695;28;97493;-87
2022/01/06 08:21:32;;;;;;;4.07;1.93;;;;;;;4.33;63.84;99574.59;4976006;28;99063;-89
2022/01/06 08:23:58;;;;;;;4.47;1.47;;;;;;;4.28;63.56;99569.50;4966447;28;100628;-87
2022/01/06 08:26:23;;;;;;;5.93;2.20;;;;;;;4.31;63.78;99589.38;4963059;28;97163;-86
2022/01/06 08:28:49;;;;;;;4.40;1.60;;;;;;;4.37;63.63;99578.00;4974862;28;97038;-86
2022/01/06 08:31:16;;;;;;;4.57;1.70;;;;;;;4.28;63.02;99590.31;4977536;28;101518;-86
2022/01/06 08:33:42;;;;;;;4.23;1.60;;;;;;;4.28;63.10;99584.25;4982151;28;98770;-86
2022/01/06 08:36:07;;;;;;;4.27;1.50;;;;;;;4.36;63.05;99605.72;4957040;28;97710;-85
2022/01/06 08:38:33;;;;;;;5.23;1.50;;;;;;;4.28;62.92;99595.50;4969556;28;96891;-86
2022/01/06 08:40:58;;;;;;;4.70;1.70;;;;;;;4.29;62.71;99604.16;4969878;28;101227;-86
2022/01/06 08:43:30;;;;;;;3.63;1.43;;;;;;;4.31;63.07;99603.22;4968139;28;98351;-87
2022/01/06 08:45:59;;;;;;;7.57;2.10;;;;;;;4.36;62.66;99623.06;4973143;28;97349;-89
2022/01/06 08:48:25;;;;;;;3.73;1.70;;;;;;;4.32;62.21;99615.31;4958652;28;96808;-85
2022/01/06 08:50:51;;;;;;;4.33;1.40;;;;;;;4.23;62.32;99602.53;4973346;28;100580;-90
2022/01/06 08:53:17;;;;;;;2.27;1.30;;;;;;;4.37;62.06;99622.19;4956169;28;99971;-91
2022/01/06 08:55:46;;;;;;;3.20;1.40;;;;;;;4.35;61.93;99632.59;4973366;28;96895;-86
2022/01/06 08:58:16;;;;;;;4.10;1.53;;;;;;;4.43;62.35;99635.91;4973741;28;96717;-86
2022/01/06 09:00:42;;;;;;;5.20;1.43;;;;;;;5.63;59.94;99644.50;4966842;28;100235;-85
2022/01/06 09:03:09;;;;;;;5.20;1.90;;;;;;;5.24;59.88;99607.28;4968128;28;98483;-85
2022/01/06 09:05:35;;;;;;;3.90;1.90;;;;;;;5.31;59.73;99667.84;4956541;28;97269;-89
2022/01/06 09:08:01;;;;;;;6.40;1.53;;;;;;;5.08;58.76;99648.41;4974985;28;97160;-89
2022/01/06 09:10:30;;;;;;;2.53;1.37;;;;;;;4.95;58.92;99650.44;4957136;28;101010;-88
2022/01/06 09:12:56;;;;;;;4.67;1.60;;;;;;;4.82;57.32;99659.38;4955194;28;101411;-86
2022/01/06 09:15:22;;;;;;;4.17;1.37;;;;;;;4.93;56.49;99630.53;4969724;28;96873;-86
2022/01/06 09:17:48;;;;;;;4.60;1.60;;;;;;;4.76;54.96;99646.50;4972249;28;96890;-86
2022/01/06 09:20:13;;;;;;;3.27;1.50;;;;;;;4.80;54.81;99658.56;4971560;28;100124;-83
2022/01/06 09:22:41;;;;;;;3.70;1.30;;;;;;;4.74;54.48;99675.16;4986385;28;97306;-87
2022/01/06 09:25:07;;;;;;;2.83;1.30;;;;;;;4.99;52.08;99703.25;4957667;28;96887;-87
2022/01/06 09:27:32;;;;;;;2.67;0.90;;;;;;;5.68;51.11;99701.69;4989893;28;97141;-86
2022/01/06 09:29:58;;;;;;;2.13;1.00;;;;;;;5.13;51.26;99718.56;4973678;28;97972;-87
2022/01/06 09:32:24;;;;;;;4.57;1.37;;;;;;;4.91;51.32;99716.38;4955278;28;100930;-88
2022/01/06 09:34:49;;;;;;;3.00;1.30;;;;;;;4.79;51.88;99713.19;4956052;28;98082;-88
2022/01/06 09:37:16;;;;;;;3.40;1.30;;;;;;;4.61;52.14;99709.22;4971885;28;97896;-88
2022/01/06 09:39:41;;;;;;;2.53;1.00;;;;;;;4.89;51.93;99743.34;4954862;28;100095;-88
2022/01/06 09:42:07;;;;;;;2.97;1.10;;;;;;;4.99;50.76;99698.03;4972539;28;96688;-88
2022/01/06 09:44:33;;;;;;;3.57;1.20;;;;;;;6.24;48.98;99754.19;4973874;28;97072;-87
2022/01/06 09:47:01;;;;;;;2.70;0.90;;;;;;;6.94;47.71;99748.84;4969407;28;97022;-86
2022/01/06 09:49:27;;;;;;;3.57;0.93;;;;;;;6.11;48.99;99708.50;4969870;28;101889;-87
2022/01/06 09:51:52;;;;;;;3.20;1.50;;;;;;;6.47;48.37;99724.91;4953000;28;101801;-86
2022/01/06 09:54:19;;;;;;;2.83;1.27;;;;;;;6.20;48.50;99767.34;4956909;28;96856;-86
2022/01/06 09:56:44;;;;;;;6.30;2.53;;;;;;;5.67;47.05;99702.56;4969341;28;97331;-88
2022/01/06 09:59:10;;;;;;;2.17;1.10;;;;;;;5.39;47.56;99725.81;4943315;28;101377;-87
2022/01/06 10:01:35;;;;;;;4.30;1.20;;;;;;;5.38;47.80;99773.53;4967849;28;101015;-89
2022/01/06 10:04:01;;;;;;;6.37;1.60;;;;;;;5.05;48.33;99790.72;4981542;28;98169;-90
2022/01/06 10:06:30;;;;;;;2.77;1.33;;;;;;;4.97;48.52;99783.94;4951860;28;97425;-87
2022/01/06 10:10:25;;;;;;;3.93;1.60;;;;;;;5.59;47.80;99783.50;4987353;28;96712;-88
2022/01/06 10:12:56;;;;;;;2.70;1.27;;;;;;;5.18;48.13;99779.19;4996111;28;96929;-88
2022/01/06 10:15:23;;;;;;;2.40;1.20;;;;;;;5.11;47.84;99790.59;4982868;28;100592;-88
2022/01/06 10:17:49;;;;;;;2.33;1.20;;;;;;;4.71;48.26;99767.94;4988006;28;101581;-87
2022/01/06 10:20:20;;;;;;;2.30;1.00;;;;;;;4.86;48.15;99800.59;4968429;28;97610;-87
2022/01/06 10:22:47;;;;;;;3.22;1.02;;;;;;;4.66;47.89;99804.44;4998235;28;97115;-87
2022/01/06 10:25:15;;;;;;;2.70;1.10;;;;;;;4.35;48.53;99766.88;4970675;28;100257;-90
2022/01/06 10:27:41;;;;;;;4.30;1.17;;;;;;;4.56;48.45;99812.41;4988928;28;99635;-95
2022/01/06 10:30:09;;;;;;;2.87;1.10;;;;;;;4.03;48.97;99716.31;4971721;28;96770;-92
2022/01/06 10:32:37;;;;;;;2.60;1.10;;;;;;;4.22;48.86;99777.50;4972189;28;97331;-87
2022/01/06 10:35:06;;;;;;;3.90;1.40;;;;;;;4.45;49.57;99817.78;4987186;28;101522;-89
2022/01/06 10:37:39;;;;;;;2.43;1.20;;;;;;;4.16;49.87;99779.31;4985656;28;98409;-89
2022/01/06 10:40:10;;;;;;;2.07;1.33;;;;;;;4.44;49.69;99823.91;4956898;28;97460;-90
2022/01/06 10:42:38;;;;;;;2.83;1.13;;;;;;;4.19;50.54;99808.72;4992080;28;96968;-84
2022/01/06 10:45:15;;;;;;;3.70;1.27;;;;;;;4.43;50.54;99822.19;4961796;28;100808;-84
2022/01/06 10:47:46;;;;;;;2.17;1.10;;;;;;;4.44;50.25;99832.53;4981051;28;101269;-84
2022/01/06 10:50:17;;;;;;;3.38;1.30;;;;;;;4.41;50.28;99808.34;4981307;28;98322;-84
2022/01/06 10:52:45;;;;;;;4.37;1.30;;;;;;;4.58;50.15;99839.25;4964252;28;97863;-84
2022/01/06 10:55:11;;;;;;;3.03;1.20;;;;;;;4.61;50.04;99827.06;4967079;28;99631;-83
2022/01/06 10:57:48;;;;;;;2.80;0.90;;;;;;;4.56;50.00;99830.63;4961785;28;99853;-84
2022/01/06 11:00:17;;;;;;;3.57;1.10;;;;;;;4.61;50.07;99841.81;4954963;28;96995;-84
2022/01/06 11:02:42;;;;;;;4.20;1.40;;;;;;;4.63;49.75;99840.91;4976039;28;97496;-84
2022/01/06 11:05:08;;;;;;;4.20;1.60;;;;;;;4.55;49.48;99842.78;4993063;28;101356;-90
2022/01/06 11:07:34;;;;;;;2.77;0.93;;;;;;;4.52;49.29;99842.81;4990768;28;98423;-90
2022/01/06 11:10:00;;;;;;;3.37;1.20;;;;;;;4.49;49.24;99842.88;5012680;28;96884;-89
2022/01/06 11:12:26;;;;;;;4.13;1.17;;;;;;;4.34;49.32;99844.00;5000147;28;97161;-87
2022/01/06 11:14:56;;;;;;;3.33;1.63;;;;;;;4.29;49.37;99838.84;4979366;28;100855;-88
2022/01/06 11:17:23;;;;;;;4.73;1.67;;;;;;;4.39;49.64;99849.09;4967723;28;101266;-86
2022/01/06 11:19:49;;;;;;;4.67;1.57;;;;;;;4.06;49.29;99812.38;4973443;28;96643;-86
2022/01/06 11:22:17;;;;;;;2.27;1.13;;;;;;;4.36;49.98;99852.59;4953602;28;96870;-87
2022/01/06 11:24:56;;;;;;;3.40;1.30;;;;;;;4.37;50.08;99856.94;4969162;28;101417;-86
2022/01/06 11:27:37;;;;;;;3.93;1.60;;;;;;;4.34;49.84;99863.94;4940378;28;98390;-86
2022/01/06 11:30:13;;;;;;;5.57;1.33;;;;;;;4.41;50.12;99866.38;4961631;28;96991;-85
2022/01/06 11:32:41;;;;;;;6.03;1.60;;;;;;;4.16;49.70;99828.66;4954897;28;97216;-86
2022/01/06 11:35:11;;;;;;;4.53;1.60;;;;;;;4.14;49.55;99831.31;4941414;28;101454;-86
2022/01/06 11:37:43;;;;;;;3.60;1.37;;;;;;;4.36;49.87;99850.00;4955828;28;101048;-86
2022/01/06 11:40:09;;;;;;;3.10;1.50;;;;;;;4.48;50.38;99849.81;4966207;28;96942;-86
2022/01/06 11:42:35;;;;;;;2.47;1.27;;;;;;;4.57;49.88;99850.53;4954491;28;96863;-86
2022/01/06 11:45:00;;;;;;;4.97;1.30;;;;;;;4.49;50.00;99846.31;4979967;28;101197;-86
2022/01/06 11:47:36;;;;;;;5.70;1.40;;;;;;;4.51;49.92;99841.97;4980433;28;101351;-86
2022/01/06 11:50:25;;;;;;;3.80;1.33;;;;;;;4.67;50.05;99859.91;4943903;28;97227;-86